Time;durP1;ratioP1;P1;durP2;ratioP2;P2;SDS_P1;SDS_P2;PMS_P1;PMS_P2;Temp;Humidity;BMP_temperature;BMP_pressure;BME280_temperature;BME280_humidity;BME280_pressure;Samples;Min_cycle;Max_cycle;Signal;HPM_P1;HPM_P2
2022/03/15 00:00:26;;;;;;;15.48;8.57;;;;;;;12.14;53.64;102725.28;5102138;28;20078;-58
2022/03/15 00:02:56;;;;;;;16.98;7.45;;;;;;;12.25;53.90;102740.16;5097312;28;20051;-58
2022/03/15 00:05:25;;;;;;;16.02;7.38;;;;;;;12.22;53.91;102733.28;5102490;28;20157;-59
2022/03/15 00:07:52;;;;;;;13.93;7.47;;;;;;;12.22;53.79;102730.59;5095632;28;20044;-59
2022/03/15 00:10:20;;;;;;;16.52;7.70;;;;;;;12.20;53.61;102729.94;5102380;28;20048;-59
2022/03/15 00:12:51;;;;;;;15.90;7.15;;;;;;;12.18;53.92;102734.69;5102420;28;20064;-59
2022/03/15 00:15:19;;;;;;;14.98;7.35;;;;;;;12.17;53.92;102730.31;5101072;28;20044;-59
2022/03/15 00:17:47;;;;;;;17.33;7.72;;;;;;;12.16;53.97;102731.34;5094338;28;20147;-59
2022/03/15 00:20:18;;;;;;;14.65;7.60;;;;;;;12.16;53.94;102735.88;5106165;28;20051;-59
2022/03/15 00:22:46;;;;;;;16.15;8.32;;;;;;;12.14;54.00;102730.69;5100406;28;20087;-59
2022/03/15 00:25:16;;;;;;;11.00;6.68;;;;;;;12.13;54.00;102729.03;5106198;28;20048;-60
2022/03/15 00:27:45;;;;;;;14.00;7.30;;;;;;;12.11;54.05;102725.69;5105965;28;20051;-59
2022/03/15 00:30:15;;;;;;;11.95;6.97;;;;;;;12.10;53.88;102723.19;5105746;28;20063;-59
2022/03/15 00:32:43;;;;;;;17.80;7.35;;;;;;;12.09;53.87;102718.81;5098985;28;20059;-59
2022/03/15 00:35:14;;;;;;;13.23;7.68;;;;;;;12.06;53.73;102722.72;5106054;28;20040;-59
2022/03/15 00:37:41;;;;;;;12.35;6.70;;;;;;;12.06;53.86;102730.81;5099555;28;20389;-60
2022/03/15 00:40:10;;;;;;;12.65;6.63;;;;;;;12.04;53.86;102736.38;5102086;28;20146;-58
2022/03/15 00:42:38;;;;;;;17.50;7.32;;;;;;;12.00;53.92;102729.69;5103993;28;20094;-60
2022/03/15 00:45:07;;;;;;;16.40;7.00;;;;;;;12.01;53.89;102727.81;5105521;28;20072;-59
2022/03/15 00:47:36;;;;;;;14.77;6.60;;;;;;;11.99;53.82;102728.00;5104190;28;20094;-60
2022/03/15 00:50:04;;;;;;;14.60;7.10;;;;;;;11.99;53.73;102732.56;5102942;28;20426;-60
2022/03/15 00:52:32;;;;;;;13.38;7.15;;;;;;;11.97;53.94;102730.06;5102891;28;20119;-59
2022/03/15 00:55:00;;;;;;;11.82;7.20;;;;;;;11.96;54.00;102724.84;5105870;28;20163;-58
2022/03/15 00:57:28;;;;;;;12.25;6.70;;;;;;;11.91;53.83;102711.94;5098107;28;20075;-58
2022/03/15 00:59:56;;;;;;;9.88;6.13;;;;;;;11.94;53.86;102716.94;5105505;28;20091;-59
2022/03/15 01:02:23;;;;;;;14.15;6.32;;;;;;;11.92;53.79;102716.31;5104915;28;20134;-59
2022/03/15 01:04:52;;;;;;;10.63;6.30;;;;;;;11.94;53.68;102724.19;5105166;28;20485;-58
2022/03/15 01:07:20;;;;;;;13.05;6.72;;;;;;;11.91;53.76;102719.19;5093245;28;20044;-60
2022/03/15 01:09:48;;;;;;;12.93;6.90;;;;;;;11.91;53.85;102728.09;5105287;28;20072;-59
2022/03/15 01:12:16;;;;;;;10.68;6.82;;;;;;;11.90;53.66;102730.97;5098018;28;20182;-59
2022/03/15 01:14:43;;;;;;;14.20;6.75;;;;;;;11.88;53.60;102725.78;5103488;28;20055;-58
2022/03/15 01:17:11;;;;;;;12.43;6.75;;;;;;;11.87;53.78;102724.09;5103640;28;20717;-58
2022/03/15 01:19:40;;;;;;;15.38;6.90;;;;;;;11.88;53.78;102719.56;5098982;28;20142;-58
2022/03/15 01:22:09;;;;;;;14.90;6.85;;;;;;;11.86;53.56;102719.72;5105098;28;20051;-58
2022/03/15 01:24:36;;;;;;;13.95;6.60;;;;;;;11.85;53.67;102720.75;5105747;28;20044;-58
2022/03/15 01:27:04;;;;;;;14.82;6.95;;;;;;;11.84;53.79;102710.16;5091962;28;20052;-58
2022/03/15 01:29:32;;;;;;;13.35;7.03;;;;;;;11.82;53.67;102706.81;5104353;28;20071;-58
2022/03/15 01:32:00;;;;;;;11.32;6.97;;;;;;;11.82;53.75;102699.56;5103317;28;20076;-58
2022/03/15 01:34:28;;;;;;;12.25;6.57;;;;;;;11.81;53.79;102697.91;5097516;28;20083;-59
2022/03/15 01:36:56;;;;;;;13.60;7.20;;;;;;;11.80;53.70;102696.22;5101835;28;20064;-58
2022/03/15 01:39:25;;;;;;;13.48;7.25;;;;;;;11.78;53.91;102684.81;5104280;28;20048;-58
2022/03/15 01:41:53;;;;;;;10.63;7.03;;;;;;;11.78;53.77;102684.81;5104835;28;20088;-58
2022/03/15 01:44:22;;;;;;;13.50;6.20;;;;;;;11.76;53.82;102694.06;5104866;28;20051;-59
2022/03/15 01:46:51;;;;;;;12.32;6.80;;;;;;;11.75;53.86;102693.22;5092998;28;20093;-58
2022/03/15 01:49:19;;;;;;;15.20;6.05;;;;;;;11.73;53.94;102693.41;5103668;28;20044;-59
2022/03/15 01:51:48;;;;;;;13.57;6.85;;;;;;;11.72;53.86;102689.03;5103460;28;20112;-59
2022/03/15 01:54:16;;;;;;;11.65;6.82;;;;;;;11.71;53.99;102692.75;5099257;28;20075;-59
2022/03/15 01:56:46;;;;;;;10.82;6.32;;;;;;;11.68;53.71;102695.81;5103606;28;20087;-58
2022/03/15 01:59:14;;;;;;;13.50;6.28;;;;;;;11.67;53.81;102691.44;5103984;28;20076;-58
2022/03/15 02:01:42;;;;;;;12.93;6.50;;;;;;;11.66;53.80;102681.69;5096622;28;20092;-58
2022/03/15 02:04:12;;;;;;;15.32;7.50;;;;;;;11.63;53.88;102681.22;5097358;28;20116;-59
2022/03/15 02:06:42;;;;;;;14.77;6.43;;;;;;;11.64;53.75;102681.03;5104160;28;20048;-58
2022/03/15 02:09:11;;;;;;;17.33;6.10;;;;;;;11.63;53.86;102675.84;5103931;28;20078;-58
2022/03/15 02:11:39;;;;;;;12.52;7.28;;;;;;;11.59;53.70;102678.06;5104468;28;20048;-58
2022/03/15 02:14:08;;;;;;;14.18;6.80;;;;;;;11.60;53.93;102677.03;5102655;28;20048;-57
2022/03/15 02:16:36;;;;;;;11.90;6.60;;;;;;;11.58;53.77;102681.78;5102704;28;20049;-57
2022/03/15 02:19:05;;;;;;;12.15;6.30;;;;;;;11.58;53.91;102671.00;5103191;28;20040;-60
2022/03/15 02:21:36;;;;;;;12.07;6.60;;;;;;;11.55;53.85;102678.59;5099587;28;20059;-57
2022/03/15 02:24:06;;;;;;;12.27;6.70;;;;;;;11.55;53.90;102657.91;5104231;28;20040;-58
2022/03/15 02:26:34;;;;;;;14.10;6.35;;;;;;;11.54;53.74;102658.91;5104128;28;20076;-58
2022/03/15 02:29:02;;;;;;;15.45;6.32;;;;;;;11.53;53.79;102653.72;5103719;28;20051;-59
2022/03/15 02:31:29;;;;;;;11.57;6.50;;;;;;;11.31;53.64;102617.75;5097250;28;20082;-59
2022/03/15 02:33:57;;;;;;;15.15;6.90;;;;;;;11.52;53.80;102652.88;5103477;28;20055;-59
2022/03/15 02:36:25;;;;;;;12.85;6.80;;;;;;;11.51;53.83;102648.53;5100974;28;20040;-58
2022/03/15 02:38:54;;;;;;;14.77;6.85;;;;;;;11.51;53.62;102645.00;5102110;28;20055;-59
2022/03/15 02:41:22;;;;;;;12.80;6.07;;;;;;;11.50;53.69;102637.94;5103167;28;20043;-59
2022/03/15 02:43:49;;;;;;;14.25;6.70;;;;;;;11.50;53.56;102627.16;5103182;28;20048;-58
2022/03/15 02:46:17;;;;;;;11.88;6.50;;;;;;;11.50;53.76;102624.47;5102432;28;20083;-58
2022/03/15 02:48:45;;;;;;;11.63;6.25;;;;;;;11.49;53.63;102623.63;5102754;28;20098;-58
2022/03/15 02:51:15;;;;;;;13.43;6.20;;;;;;;11.49;53.51;102628.19;5099491;28;20044;-59
2022/03/15 02:53:42;;;;;;;10.95;5.95;;;;;;;11.48;53.58;102627.34;5103615;28;20078;-59
2022/03/15 02:56:12;;;;;;;12.23;6.13;;;;;;;11.46;53.85;102629.38;5099846;28;20055;-58
2022/03/15 02:58:40;;;;;;;11.20;6.57;;;;;;;11.45;53.66;102633.09;5103276;28;20043;-58
2022/03/15 03:01:08;;;;;;;13.18;6.90;;;;;;;11.43;53.65;102629.75;5102927;28;20549;-59
2022/03/15 03:03:37;;;;;;;19.05;7.82;;;;;;;11.44;53.71;102627.91;5098178;28;20064;-59
2022/03/15 03:06:05;;;;;;;14.35;6.30;;;;;;;11.44;53.61;102630.59;5091884;28;20123;-59
2022/03/15 03:08:34;;;;;;;10.85;5.97;;;;;;;11.41;53.58;102621.03;5103282;28;20080;-59
2022/03/15 03:11:02;;;;;;;12.05;7.10;;;;;;;11.39;53.88;102612.28;5102507;28;20389;-59
2022/03/15 03:13:33;;;;;;;11.23;5.97;;;;;;;11.39;53.65;102598.84;5097717;28;20071;-59
2022/03/15 03:16:01;;;;;;;9.65;5.90;;;;;;;11.34;53.68;102582.41;5096118;28;20044;-60
2022/03/15 03:18:33;;;;;;;11.20;6.30;;;;;;;11.35;53.91;102586.75;5102625;28;20059;-59
2022/03/15 03:21:02;;;;;;;14.90;6.70;;;;;;;11.34;53.98;102585.94;5096875;28;20083;-58
2022/03/15 03:23:31;;;;;;;12.20;7.15;;;;;;;11.34;53.74;102587.78;5100566;28;20048;-58
2022/03/15 03:26:00;;;;;;;11.23;5.88;;;;;;;11.32;53.82;102584.44;5103212;28;20047;-59
2022/03/15 03:28:33;;;;;;;15.23;6.85;;;;;;;11.31;53.69;102589.00;5102504;28;20099;-58
2022/03/15 03:31:03;;;;;;;14.20;5.68;;;;;;;11.30;53.97;102586.47;5100489;28;20079;-56
2022/03/15 03:33:32;;;;;;;9.35;5.70;;;;;;;11.29;53.73;102582.13;5101844;28;20160;-59
2022/03/15 03:36:00;;;;;;;13.55;6.18;;;;;;;11.28;53.79;102585.84;5100494;28;20036;-58
2022/03/15 03:38:28;;;;;;;12.65;6.97;;;;;;;11.27;53.97;102585.00;5102497;28;20052;-58
2022/03/15 03:40:56;;;;;;;13.20;6.85;;;;;;;11.25;53.81;102583.50;5102670;28;20127;-58
2022/03/15 03:43:25;;;;;;;12.10;6.22;;;;;;;11.24;53.80;102582.66;5101040;28;20079;-59
2022/03/15 03:45:52;;;;;;;12.38;6.65;;;;;;;11.22;53.87;102578.50;5102659;28;20070;-58
2022/03/15 03:48:23;;;;;;;10.80;5.95;;;;;;;11.14;53.90;102565.13;5097098;28;20131;-58
2022/03/15 03:50:52;;;;;;;14.00;6.25;;;;;;;11.21;53.96;102584.88;5101524;28;20048;-59
2022/03/15 03:53:21;;;;;;;10.10;6.38;;;;;;;11.21;54.10;102571.44;5091756;28;20075;-59
2022/03/15 03:55:48;;;;;;;12.73;6.80;;;;;;;11.19;53.83;102568.94;5102731;28;20044;-58
2022/03/15 03:58:16;;;;;;;12.30;7.05;;;;;;;11.19;53.93;102576.16;5097501;28;20459;-58
2022/03/15 04:00:44;;;;;;;11.73;5.95;;;;;;;11.17;53.74;102572.81;5100565;28;20110;-57
2022/03/15 04:03:16;;;;;;;13.18;6.43;;;;;;;11.17;53.74;102587.13;5102202;28;20040;-58
2022/03/15 04:05:46;;;;;;;9.07;6.00;;;;;;;11.16;53.88;102581.91;5097303;28;20105;-59
2022/03/15 04:08:16;;;;;;;12.20;6.03;;;;;;;11.15;53.98;102578.38;5097920;28;20048;-58
2022/03/15 04:10:46;;;;;;;13.55;6.15;;;;;;;11.15;54.19;102591.00;5102531;28;20071;-59
2022/03/15 04:13:17;;;;;;;15.15;6.47;;;;;;;11.14;53.94;102579.41;5096323;28;20040;-58
2022/03/15 04:15:45;;;;;;;12.45;6.22;;;;;;;11.14;54.07;102589.34;5102294;28;20048;-59
2022/03/15 04:18:13;;;;;;;13.77;6.43;;;;;;;11.14;53.81;102594.72;5099714;28;20044;-58
2022/03/15 04:20:42;;;;;;;10.75;5.95;;;;;;;11.14;53.93;102597.41;5093790;28;20048;-59
2022/03/15 04:23:11;;;;;;;14.02;7.15;;;;;;;11.13;53.83;102595.75;5101487;28;20051;-58
2022/03/15 04:25:40;;;;;;;10.85;5.70;;;;;;;11.11;54.01;102593.22;5099228;28;20076;-59
2022/03/15 04:28:11;;;;;;;13.57;6.20;;;;;;;11.08;53.85;102596.28;5101975;28;20059;-58
2022/03/15 04:30:39;;;;;;;16.60;5.95;;;;;;;11.10;53.82;102596.94;5102819;28;20079;-58
2022/03/15 04:33:06;;;;;;;13.40;6.20;;;;;;;11.08;53.98;102597.13;5102192;28;20485;-59
2022/03/15 04:35:35;;;;;;;13.77;6.32;;;;;;;11.08;53.84;102588.22;5098280;28;20052;-58
2022/03/15 04:38:02;;;;;;;10.88;6.25;;;;;;;11.08;53.88;102593.59;5100028;28;20067;-58
2022/03/15 04:40:32;;;;;;;12.90;6.45;;;;;;;10.96;53.83;102576.22;5094125;28;20056;-58
2022/03/15 04:43:01;;;;;;;13.38;6.55;;;;;;;11.05;54.05;102583.19;5100847;28;20075;-59
2022/03/15 04:45:29;;;;;;;9.23;5.53;;;;;;;11.03;54.04;102583.38;5101414;28;20052;-59
2022/03/15 04:47:56;;;;;;;9.98;5.95;;;;;;;11.02;53.98;102579.00;5099555;28;20121;-59
2022/03/15 04:50:24;;;;;;;11.00;6.40;;;;;;;11.00;53.93;102572.97;5101780;28;20085;-58
2022/03/15 04:52:52;;;;;;;11.93;5.82;;;;;;;11.00;54.19;102572.16;5095086;28;20108;-58
2022/03/15 04:55:20;;;;;;;11.85;6.10;;;;;;;11.00;53.91;102569.44;5105874;28;20068;-59
2022/03/15 04:57:49;;;;;;;9.60;5.45;;;;;;;10.98;53.93;102566.94;5104776;28;20433;-58
2022/03/15 05:00:17;;;;;;;11.18;5.63;;;;;;;10.98;53.98;102563.41;5105278;28;20104;-59
2022/03/15 05:02:45;;;;;;;13.68;6.15;;;;;;;10.96;53.92;102560.91;5104844;28;20068;-59
2022/03/15 05:05:13;;;;;;;11.07;5.60;;;;;;;10.95;54.03;102566.47;5105247;28;20075;-59
2022/03/15 05:07:41;;;;;;;11.77;6.30;;;;;;;10.95;54.08;102561.09;5104321;28;20361;-59
2022/03/15 05:12:57;;;;;;;10.73;5.60;;;;;;;10.86;53.94;102551.44;5094877;28;20072;-58
2022/03/15 05:15:25;;;;;;;14.93;6.30;;;;;;;10.92;54.15;102556.06;5103529;28;20048;-58
2022/03/15 05:17:52;;;;;;;11.93;5.82;;;;;;;10.90;54.25;102553.56;5105041;28;20086;-58
2022/03/15 05:20:20;;;;;;;10.45;5.40;;;;;;;10.89;54.13;102554.59;5100375;28;20055;-58
2022/03/15 05:22:48;;;;;;;14.07;6.60;;;;;;;10.88;53.82;102546.69;5100802;28;20072;-58
2022/03/15 05:25:16;;;;;;;13.77;5.95;;;;;;;10.88;53.87;102558.28;5104890;28;20398;-58
2022/03/15 05:27:44;;;;;;;12.07;5.88;;;;;;;10.87;54.18;102551.25;5099738;28;20059;-58
2022/03/15 05:30:17;;;;;;;12.57;5.55;;;;;;;10.86;54.17;102548.72;5104772;28;20044;-58
2022/03/15 05:32:45;;;;;;;14.98;5.47;;;;;;;10.86;53.92;102552.25;5101879;28;20444;-59
2022/03/15 05:35:13;;;;;;;10.32;6.10;;;;;;;10.85;54.02;102545.22;5104829;28;20048;-59
2022/03/15 05:37:40;;;;;;;10.50;5.68;;;;;;;10.85;53.89;102547.91;5095619;28;20083;-59
2022/03/15 05:40:10;;;;;;;11.48;5.68;;;;;;;10.85;54.28;102544.38;5100988;28;20055;-59
2022/03/15 05:42:38;;;;;;;11.43;5.93;;;;;;;10.83;54.29;102536.47;5104187;28;20083;-59
2022/03/15 05:45:06;;;;;;;13.40;5.50;;;;;;;10.83;53.90;102539.19;5098976;28;20100;-59
2022/03/15 05:47:36;;;;;;;11.93;5.35;;;;;;;10.83;54.00;102531.09;5097586;28;20052;-59
2022/03/15 05:50:04;;;;;;;12.98;5.97;;;;;;;10.83;53.99;102532.97;5103616;28;20067;-59
2022/03/15 05:52:32;;;;;;;9.25;5.10;;;;;;;10.82;54.31;102525.91;5100251;28;20072;-59
2022/03/15 05:55:00;;;;;;;9.77;5.85;;;;;;;10.81;53.80;102533.16;5104424;28;20052;-57
2022/03/15 05:57:28;;;;;;;11.43;6.00;;;;;;;10.80;54.36;102527.94;5104406;28;20062;-59
2022/03/15 05:59:55;;;;;;;11.05;5.85;;;;;;;10.80;54.33;102525.25;5104575;28;20079;-59
2022/03/15 06:02:23;;;;;;;12.75;5.60;;;;;;;10.80;54.01;102517.19;5102173;28;20075;-59
2022/03/15 06:04:53;;;;;;;11.63;5.10;;;;;;;10.78;53.80;102522.75;5102840;28;20059;-59
2022/03/15 06:07:20;;;;;;;11.95;5.75;;;;;;;10.76;54.35;102514.88;5092644;28;20065;-59
2022/03/15 06:09:48;;;;;;;9.55;5.40;;;;;;;10.76;54.40;102512.19;5100698;28;20189;-59
2022/03/15 06:12:16;;;;;;;14.80;5.53;;;;;;;10.76;54.45;102514.03;5098973;28;20160;-58
2022/03/15 06:14:43;;;;;;;12.70;5.60;;;;;;;10.75;54.19;102518.56;5099685;28;20087;-59
2022/03/15 06:17:11;;;;;;;13.75;5.80;;;;;;;10.74;54.07;102521.44;5103267;28;20086;-59
2022/03/15 06:19:39;;;;;;;7.78;5.47;;;;;;;10.75;54.00;102529.31;5097321;28;20040;-59
2022/03/15 06:22:08;;;;;;;8.68;4.88;;;;;;;10.74;54.10;102527.66;5102470;28;20044;-60
2022/03/15 06:24:36;;;;;;;11.95;5.72;;;;;;;10.68;54.18;102527.53;5102415;28;20150;-60
2022/03/15 06:27:04;;;;;;;9.40;5.55;;;;;;;10.73;54.38;102530.53;5104315;28;20082;-60
2022/03/15 06:29:32;;;;;;;13.70;5.80;;;;;;;10.71;54.06;102521.81;5102831;28;20075;-59
2022/03/15 06:32:00;;;;;;;11.68;5.13;;;;;;;10.70;54.30;102515.59;5102197;28;20100;-59
2022/03/15 06:34:48;;;;;;;8.20;4.70;;;;;;;10.70;53.93;102515.59;5103401;28;20044;-59
2022/03/15 06:37:17;;;;;;;13.65;5.68;;;;;;;10.70;54.01;102515.59;5103589;28;20090;-59
2022/03/15 06:39:45;;;;;;;11.75;5.43;;;;;;;10.70;53.99;102515.59;5099488;28;20087;-58
2022/03/15 06:42:12;;;;;;;8.85;4.78;;;;;;;10.69;54.19;102513.91;5099944;28;20091;-58
2022/03/15 06:44:41;;;;;;;10.20;5.55;;;;;;;10.69;54.17;102511.22;5093388;28;20049;-59
2022/03/15 06:47:09;;;;;;;10.57;5.22;;;;;;;10.56;54.54;102494.03;5096624;28;20079;-59
2022/03/15 06:49:37;;;;;;;9.63;5.65;;;;;;;10.67;54.30;102505.19;5107998;28;20047;-58
2022/03/15 06:52:05;;;;;;;9.80;4.95;;;;;;;10.66;54.02;102495.47;5103255;28;20397;-60
2022/03/15 06:54:34;;;;;;;10.35;4.97;;;;;;;10.66;54.29;102508.06;5099442;28;20052;-58
2022/03/15 06:57:02;;;;;;;11.10;5.15;;;;;;;10.61;54.21;102486.28;5103737;28;20074;-57
2022/03/15 06:59:30;;;;;;;9.70;5.13;;;;;;;10.62;54.38;102496.84;5099286;28;20059;-60
2022/03/15 07:02:00;;;;;;;10.73;5.38;;;;;;;10.63;53.96;102498.50;5098510;28;20097;-59
2022/03/15 07:04:28;;;;;;;9.15;4.80;;;;;;;10.65;54.15;102501.84;4742721;28;10000535;-59
2022/03/15 07:06:55;;;;;;;8.35;5.28;;;;;;;10.63;54.01;102492.31;5096340;28;20082;-57
2022/03/15 07:09:24;;;;;;;11.63;5.50;;;;;;;10.62;54.33;102502.22;5091795;28;20110;-61
2022/03/15 07:11:53;;;;;;;9.25;5.22;;;;;;;10.62;54.31;102491.47;5097809;28;20127;-63
2022/03/15 07:14:21;;;;;;;8.85;5.10;;;;;;;10.61;54.57;102492.47;4740126;28;10000021;-60
2022/03/15 07:16:49;;;;;;;9.50;5.07;;;;;;;10.61;53.78;102499.72;5100794;28;20076;-60
2022/03/15 07:19:17;;;;;;;13.93;5.85;;;;;;;10.62;54.06;102506.75;5100432;28;20054;-60
2022/03/15 07:21:44;;;;;;;15.57;5.10;;;;;;;10.61;53.90;102500.53;5099649;28;20072;-59
2022/03/15 07:24:12;;;;;;;11.90;6.30;;;;;;;10.62;54.27;102493.31;5102082;28;20059;-60
2022/03/15 07:26:40;;;;;;;11.98;4.78;;;;;;;10.65;53.98;102493.78;5100545;28;20999;-60
2022/03/15 07:29:09;;;;;;;12.85;4.63;;;;;;;10.65;54.03;102485.72;5098162;28;20522;-60
2022/03/15 07:31:37;;;;;;;9.63;5.13;;;;;;;10.63;53.77;102484.22;5100050;28;20116;-60
2022/03/15 07:34:05;;;;;;;9.82;4.93;;;;;;;10.65;54.17;102491.09;5096967;28;20040;-60
2022/03/15 07:36:35;;;;;;;10.23;4.88;;;;;;;10.67;54.02;102490.91;5100745;28;20081;-60
2022/03/15 07:39:04;;;;;;;8.55;3.92;;;;;;;10.66;53.79;102484.72;5100443;28;20075;-60
2022/03/15 07:41:32;;;;;;;11.35;4.78;;;;;;;10.64;54.29;102484.06;5102029;28;20048;-59
2022/03/15 07:44:01;;;;;;;9.88;5.20;;;;;;;10.65;53.82;102491.09;5087227;28;20052;-59
2022/03/15 07:46:30;;;;;;;8.40;5.22;;;;;;;10.65;53.80;102487.56;5097040;28;20059;-60
2022/03/15 07:48:57;;;;;;;11.00;4.72;;;;;;;10.64;54.07;102484.06;5100018;28;20076;-59
2022/03/15 07:51:25;;;;;;;13.73;4.57;;;;;;;10.66;54.12;102489.25;5099873;28;20071;-59
2022/03/15 07:53:54;;;;;;;10.20;5.32;;;;;;;10.66;53.87;102489.25;5098717;28;20048;-59
2022/03/15 07:56:22;;;;;;;8.05;4.22;;;;;;;10.65;54.25;102485.72;5099543;28;20051;-58
2022/03/15 07:58:50;;;;;;;10.18;5.30;;;;;;;10.65;53.96;102480.34;5100309;28;20091;-60
2022/03/15 08:01:19;;;;;;;8.45;4.20;;;;;;;10.67;53.93;102480.16;5100950;28;20068;-60
2022/03/15 08:03:49;;;;;;;9.80;4.50;;;;;;;10.67;54.08;102478.31;5099973;28;20055;-60
2022/03/15 08:06:17;;;;;;;8.43;4.18;;;;;;;10.67;54.16;102477.47;5101336;28;20181;-59
2022/03/15 08:08:45;;;;;;;7.05;4.00;;;;;;;10.68;54.13;102474.59;5100190;28;20127;-61
2022/03/15 08:11:12;;;;;;;8.85;4.22;;;;;;;10.64;54.22;102456.31;5098780;28;20044;-59
2022/03/15 08:13:40;;;;;;;11.52;4.38;;;;;;;10.67;53.83;102466.72;5100593;28;20052;-59
2022/03/15 08:16:09;;;;;;;8.77;4.25;;;;;;;10.66;53.80;102460.50;5101024;28;20051;-60
2022/03/15 08:18:36;;;;;;;7.43;4.15;;;;;;;10.67;54.18;102453.28;5099813;28;20074;-59
2022/03/15 08:21:06;;;;;;;7.97;4.70;;;;;;;10.68;54.13;102463.00;5094133;28;20067;-60
2022/03/15 08:23:33;;;;;;;6.72;4.28;;;;;;;10.69;53.98;102459.31;5098147;28;20048;-60
2022/03/15 08:26:01;;;;;;;10.82;4.10;;;;;;;10.68;53.91;102457.63;5100820;28;20109;-60
2022/03/15 08:28:29;;;;;;;10.52;4.15;;;;;;;10.69;54.21;102456.63;5099296;28;20044;-60
2022/03/15 08:30:58;;;;;;;13.27;4.30;;;;;;;10.67;54.07;102446.03;5105827;28;20051;-59
2022/03/15 08:33:27;;;;;;;7.25;4.20;;;;;;;10.68;54.06;102452.25;5102791;28;20116;-59
2022/03/15 08:35:54;;;;;;;7.43;4.00;;;;;;;10.64;53.98;102438.34;5104058;28;20040;-59
2022/03/15 08:38:25;;;;;;;7.88;3.42;;;;;;;10.70;54.00;102440.31;5102550;28;20068;-59
2022/03/15 08:40:53;;;;;;;5.78;3.70;;;;;;;10.70;54.00;102434.91;5093157;28;20064;-58
2022/03/15 08:43:21;;;;;;;10.60;3.65;;;;;;;10.72;53.97;102442.81;5104320;28;20043;-59
2022/03/15 08:45:49;;;;;;;9.20;4.18;;;;;;;10.72;54.09;102435.56;5101477;28;20044;-58
2022/03/15 08:48:17;;;;;;;10.77;3.95;;;;;;;10.74;53.83;102443.47;5101887;28;20068;-60
2022/03/15 08:50:45;;;;;;;11.63;5.07;;;;;;;10.87;53.91;102437.44;5103658;28;20101;-60
2022/03/15 08:53:13;;;;;;;9.80;4.32;;;;;;;10.99;53.10;102439.47;5101462;28;20406;-60
2022/03/15 08:55:42;;;;;;;9.02;3.90;;;;;;;11.17;52.92;102433.72;5102689;28;20072;-59
2022/03/15 08:58:10;;;;;;;7.75;4.07;;;;;;;11.33;52.48;102441.59;5104369;28;20047;-59
2022/03/15 09:00:39;;;;;;;8.32;4.00;;;;;;;11.52;52.06;102433.94;5101421;28;20074;-59
2022/03/15 09:03:06;;;;;;;8.57;3.90;;;;;;;11.67;51.48;102437.44;5101946;28;20044;-60
2022/03/15 09:05:34;;;;;;;12.48;3.95;;;;;;;11.83;51.21;102433.72;5097113;28;20054;-59
2022/03/15 09:08:02;;;;;;;10.60;4.45;;;;;;;11.98;50.75;102429.94;5101131;28;20493;-59
2022/03/15 09:10:30;;;;;;;8.38;4.20;;;;;;;12.13;50.37;102435.25;5104566;28;20125;-60
2022/03/15 09:12:59;;;;;;;7.18;3.53;;;;;;;12.24;50.03;102423.09;5098834;28;20064;-60
2022/03/15 09:15:27;;;;;;;8.80;4.22;;;;;;;12.36;49.87;102421.53;5103207;28;20482;-60
2022/03/15 09:17:55;;;;;;;12.02;3.85;;;;;;;12.46;49.50;102415.81;5102270;28;20124;-59
2022/03/15 09:20:24;;;;;;;8.95;4.68;;;;;;;12.47;49.48;102412.91;5102311;28;20430;-59
2022/03/15 09:22:52;;;;;;;9.52;3.83;;;;;;;12.54;49.24;102419.19;5101033;28;20054;-60
2022/03/15 09:25:20;;;;;;;9.20;5.07;;;;;;;12.58;49.19;102420.47;5103869;28;20116;-60
2022/03/15 09:27:48;;;;;;;12.95;4.13;;;;;;;12.60;49.17;102415.69;5099385;28;20067;-59
2022/03/15 09:30:17;;;;;;;12.38;4.20;;;;;;;12.64;49.33;102410.75;5103058;28;20070;-60
2022/03/15 09:32:45;;;;;;;8.05;4.13;;;;;;;12.64;49.40;102408.88;5103295;28;20126;-60
2022/03/15 09:35:14;;;;;;;7.90;3.53;;;;;;;12.54;49.73;102412.97;5101973;28;20072;-60
2022/03/15 09:37:45;;;;;;;8.77;3.70;;;;;;;12.39;49.76;102413.88;5099545;28;20105;-60
2022/03/15 09:40:20;;;;;;;8.00;3.70;;;;;;;12.24;50.30;102412.31;5099150;28;20059;-60
2022/03/15 09:42:49;;;;;;;8.30;5.15;;;;;;;12.10;50.84;102413.25;5104218;28;20055;-60
2022/03/15 09:45:22;;;;;;;10.43;3.35;;;;;;;11.95;51.29;102413.31;5102886;28;20462;-60
2022/03/15 09:47:55;;;;;;;5.75;3.08;;;;;;;11.85;51.66;102404.72;5098797;28;20154;-60
2022/03/15 09:50:24;;;;;;;8.63;3.22;;;;;;;11.77;51.83;102411.06;5102832;28;20075;-60
2022/03/15 09:52:55;;;;;;;6.28;3.83;;;;;;;11.71;52.13;102401.03;5102430;28;20055;-60
2022/03/15 09:55:23;;;;;;;10.63;3.83;;;;;;;11.64;52.45;102400.13;5103819;28;20044;-60
2022/03/15 09:57:52;;;;;;;6.88;3.42;;;;;;;11.59;52.51;102403.38;5098031;28;20344;-60
2022/03/15 10:00:21;;;;;;;11.40;3.58;;;;;;;11.54;52.68;102395.03;5100633;28;20076;-60
2022/03/15 10:02:49;;;;;;;7.60;3.58;;;;;;;11.40;52.82;102388.69;5098677;28;20497;-60
2022/03/15 10:05:18;;;;;;;7.35;3.70;;;;;;;11.47;52.96;102396.81;4737539;28;10000088;-60
2022/03/15 10:07:47;;;;;;;8.45;2.97;;;;;;;11.45;53.01;102398.03;5099040;28;20082;-60
2022/03/15 10:10:16;;;;;;;12.75;4.13;;;;;;;11.41;52.94;102390.34;5097692;28;20060;-60
2022/03/15 10:12:43;;;;;;;8.27;4.07;;;;;;;11.36;53.11;102390.06;5095343;28;20040;-60
2022/03/15 10:15:13;;;;;;;7.53;3.22;;;;;;;11.38;53.31;102390.72;5101151;28;20071;-60
2022/03/15 10:17:48;;;;;;;8.73;3.72;;;;;;;11.37;53.36;102388.22;5099886;28;20052;-60
2022/03/15 10:20:18;;;;;;;11.60;3.67;;;;;;;11.36;53.54;102389.25;5098778;28;20079;-60
2022/03/15 10:22:55;;;;;;;8.65;3.83;;;;;;;11.33;53.41;102385.06;5102496;28;20039;-60
2022/03/15 10:25:23;;;;;;;7.05;4.20;;;;;;;11.29;53.51;102386.47;5099624;28;20071;-59
2022/03/15 10:27:55;;;;;;;9.18;3.60;;;;;;;11.38;53.38;102392.56;5099986;28;20058;-60
2022/03/15 10:30:24;;;;;;;7.95;3.38;;;;;;;11.53;53.26;102388.00;5101910;28;20052;-60
2022/03/15 10:32:54;;;;;;;8.73;3.30;;;;;;;11.69;52.81;102387.75;5102016;28;20093;-60
2022/03/15 10:35:24;;;;;;;7.70;3.83;;;;;;;11.86;52.08;102382.97;5103387;28;20059;-59
2022/03/15 10:37:54;;;;;;;9.25;3.95;;;;;;;12.04;51.68;102379.81;5101312;28;20058;-60
2022/03/15 10:40:32;;;;;;;6.20;3.28;;;;;;;12.22;51.40;102382.03;5103671;28;20181;-60
2022/03/15 10:43:04;;;;;;;11.50;3.78;;;;;;;12.32;50.98;102386.03;5096322;28;20048;-60
2022/03/15 10:45:32;;;;;;;8.90;3.35;;;;;;;12.31;50.95;102383.53;5103367;28;20103;-60
2022/03/15 10:48:02;;;;;;;9.55;3.70;;;;;;;12.25;51.03;102377.06;5095641;28;20059;-60
2022/03/15 10:50:33;;;;;;;7.32;3.67;;;;;;;12.14;51.38;102374.91;5102446;28;20056;-60
2022/03/15 10:53:07;;;;;;;6.57;4.28;;;;;;;12.03;51.67;102359.28;5095281;28;20044;-60
2022/03/15 10:55:35;;;;;;;9.60;2.97;;;;;;;11.95;52.07;102367.50;5091537;28;20067;-60
2022/03/15 10:58:05;;;;;;;5.00;2.83;;;;;;;11.87;52.29;102365.78;5093487;28;20351;-60
2022/03/15 11:00:42;;;;;;;6.47;2.92;;;;;;;11.82;52.49;102368.22;5098128;28;20062;-60
2022/03/15 11:03:15;;;;;;;7.75;3.20;;;;;;;11.77;52.89;102365.28;5103544;28;20473;-60
2022/03/15 11:05:43;;;;;;;8.30;3.83;;;;;;;11.74;52.93;102352.16;5103112;28;20050;-59
2022/03/15 11:08:13;;;;;;;7.50;3.67;;;;;;;11.72;53.03;102346.97;5100834;28;20076;-59
2022/03/15 11:10:42;;;;;;;7.82;3.60;;;;;;;11.70;53.09;102342.81;5095765;28;20139;-59
2022/03/15 11:13:12;;;;;;;6.25;3.10;;;;;;;11.66;53.11;102342.34;5089542;28;20103;-59
2022/03/15 11:15:42;;;;;;;4.88;3.10;;;;;;;11.65;53.37;102346.06;5101782;28;20052;-59
2022/03/15 11:18:13;;;;;;;8.25;2.95;;;;;;;11.63;53.46;102344.59;5095796;28;20082;-60
2022/03/15 11:20:43;;;;;;;6.68;3.30;;;;;;;11.59;53.92;102333.38;5101536;28;20083;-60
2022/03/15 11:23:17;;;;;;;10.55;3.45;;;;;;;11.60;53.61;102324.28;5101559;28;20047;-59
2022/03/15 11:25:48;;;;;;;7.20;3.00;;;;;;;11.60;54.02;102326.97;5101161;28;20494;-60
2022/03/15 11:28:20;;;;;;;11.18;4.85;;;;;;;11.58;53.88;102318.25;5098680;28;20051;-59